Maersk Damietta — A8OU4 — position and weather

sailwx.info

Track history (hours):
 
Tides and Currents Weather Stations Pressure Air Temp Water Temp Dewpoint Dewpoint Depression Visibility Wind Speed Wind Dir Waves Ship Positions

Maersk Damietta

Last reported at 2014-Aug-01 06:00 UTC. Time now 2014-Aug-21 18:00 UTC.
Position N 16°18' E 040°54'.
Warning: this ship's position is 20 days out of date.

Length 293 m; draft 10.9 m.

Type: Ship (hazmat cat B). MMSI: 636091506.

Wind from 070 at 7 knots

Waves 0.5 meters (2 feet), 1 second period

Barometer 1008.0 mb
Air temperature 34.0 ° C
Visibility: greater than 5.4 NM
Dewpoint 31.4 ° C
Water temperature 33.0 ° C

Date/timePositionNaut miles runAvg speedWind from/ knotsBaromVisibWave heightAir tempDewpointWater temp
2014-Aug-01 06:00N 16°18' E 040°54'19115.9 070 / 71008.0 5.4 0.534.031.433.0
2014-Jul-31 18:00N 19°06' E 039°18'   240 / 131005.010.8 0.534.028.632.0
2014-Jul-29 01:33N 31°13' E 032°21'0 0.0
2014-Jul-29 00:27N 31°13' E 032°21'0 0.0
2014-Jul-28 23:33N 31°13' E 032°21'0 0.0
2014-Jul-28 22:30N 31°13' E 032°21'0 0.0
2014-Jul-28 21:33N 31°13' E 032°21'0 0.0
2014-Jul-28 20:21N 31°13' E 032°21'0 0.0
2014-Jul-28 18:21N 31°13' E 032°21'0 0.0
2014-Jul-28 17:33N 31°13' E 032°21'0 0.0
2014-Jul-28 16:33N 31°13' E 032°21'0 0.0
2014-Jul-28 15:33N 31°13' E 032°21'0 0.0
2014-Jul-28 14:27N 31°13' E 032°21'0 0.0
2014-Jul-28 13:33N 31°13' E 032°21'0 0.0
2014-Jul-28 12:27N 31°13' E 032°21'66 6.5
2014-Jul-28 02:16N 31°56' E 031°23'1217.0
2014-Jul-28 01:33N 32°00' E 031°10'5217.0
2014-Jul-27 22:31N 32°16' E 030°12'3316.8
2014-Jul-27 20:33N 32°27' E 029°35'1616.5
2014-Jul-27 19:33N 32°33' E 029°17'76317.3
2014-Jul-25 23:33N 36°40' E 014°40'1818.1
2014-Jul-25 22:33N 36°45' E 014°18'1817.8
2014-Jul-25 21:33N 36°49' E 013°57'1717.4
2014-Jul-25 20:33N 36°54' E 013°36'1717.1
2014-Jul-25 19:33N 36°58' E 013°15'1717.2
2014-Jul-25 18:33N 37°02' E 012°54'1717.4
2014-Jul-25 17:33N 37°07' E 012°33'1717.3
2014-Jul-25 16:34N 37°11' E 012°12'1717.1
2014-Jul-25 15:33N 37°15' E 011°51'1717.2
2014-Jul-25 14:33N 37°18' E 011°30'1716.4
2014-Jul-25 13:33N 37°23' E 011°10'1716.8
2014-Jul-25 12:33N 37°28' E 010°50'1817.3
2014-Jul-25 11:32N 37°33' E 010°28'2217.8
2014-Jul-25 10:18N 37°35' E 010°01'1418.2
2014-Jul-25 09:33N 37°35' E 009°44'1818.0
2014-Jul-25 08:32N 37°39' E 009°21'1717.5
2014-Jul-25 07:33N 37°42' E 008°59'1817.8
2014-Jul-25 06:33N 37°42' E 008°37'1616.4
2014-Jul-25 05:33N 37°42' E 008°17'2419.7
2014-Jul-25 04:21N 37°42' E 007°46'5517.0
2014-Jul-25 01:09N 37°37' E 006°38'915.3
2014-Jul-25 00:33N 37°35' E 006°26'1716.5
2014-Jul-24 23:32N 37°32' E 006°06'1717.1
2014-Jul-24 22:33N 37°29' E 005°45'1717.3
2014-Jul-24 21:33N 37°26' E 005°23'1717.3
2014-Jul-24 20:33N 37°23' E 005°02'1717.4
2014-Jul-24 19:33N 37°20' E 004°41'1717.5
2014-Jul-24 18:33N 37°17' E 004°19'1717.1
2014-Jul-24 17:33N 37°14' E 003°58'1717.1
2014-Jul-24 16:33N 37°10' E 003°37'2118.3
2014-Jul-24 15:25N 37°07' E 003°11'2219.0
2014-Jul-24 14:16N 37°03' E 002°44'1318.4
2014-Jul-24 13:33N 37°00' E 002°28'1817.8
2014-Jul-24 12:33N 36°57' E 002°06'1817.8
2014-Jul-24 11:33N 36°54' E 001°44'1818.3
2014-Jul-24 10:33N 36°50' E 001°22'2318.4
2014-Jul-24 09:17N 36°46' E 000°53'1418.2
2014-Jul-24 08:30N 36°44' E 000°35'1718.2
2014-Jul-24 07:33N 36°41' E 000°14'3818.1
2014-Jul-24 05:26N 36°35' W 000°33'1719.0
2014-Jul-24 04:33N 36°32' W 000°53'3718.5
2014-Jul-24 02:33N 36°26' W 001°39'18318.3
2014-Jul-23 16:33N 36°07' W 005°24'2 1.8
2014-Jul-23 15:31N 36°08' W 005°26'0 0.0
2014-Jul-23 14:31N 36°08' W 005°26'0 0.0
2014-Jul-23 12:19N 36°08' W 005°26'0 0.0
2014-Jul-23 11:21N 36°08' W 005°26'0 0.0
2014-Jul-23 10:24N 36°08' W 005°26'0 0.0
2014-Jul-23 09:18N 36°08' W 005°26'0 0.0
2014-Jul-23 08:24N 36°08' W 005°26'10 0.9
2014-Jul-22 21:33N 35°58' W 005°27'11216.0
2014-Jul-22 14:33N 36°05' W 007°45'1716.8
2014-Jul-22 13:33N 36°08' W 008°06'2417.1
2014-Jul-22 12:09N 36°13' W 008°35'1 7.5
2014-Jul-22 12:00N 36°12' W 008°36'1320.1 340 / 191016.0 1.020.016.723.0
2014-Jul-22 11:21N 36°15' W 008°51'1316.6
2014-Jul-22 10:33N 36°18' W 009°07'1917.7
2014-Jul-22 09:29N 36°23' W 009°30'1010.8
2014-Jul-22 08:33N 36°25' W 009°42'1111.2
2014-Jul-22 07:33N 36°26' W 009°56'1615.8
2014-Jul-22 06:30N 36°30' W 010°16'  
Track history (hours):
 
Tides and Currents Weather Stations Pressure Air Temp Water Temp Dewpoint Dewpoint Depression Visibility Wind Speed Wind Dir Waves Ship Positions

Maersk Damietta

Last reported at 2014-Aug-01 06:00 UTC. Time now 2014-Aug-21 18:00 UTC.
Position N 16°18' E 040°54'.
Warning: this ship's position is 20 days out of date.

Length 293 m; draft 10.9 m.

Type: Ship (hazmat cat B). MMSI: 636091506.

Wind from 070 at 7 knots

Waves 0.5 meters (2 feet), 1 second period

Barometer 1008.0 mb
Air temperature 34.0 ° C
Visibility: greater than 5.4 NM
Dewpoint 31.4 ° C
Water temperature 33.0 ° C

Date/timePositionNaut miles runAvg speedWind from/ knotsBaromVisibWave heightAir tempDewpointWater temp
2014-Aug-01 06:00N 16°18' E 040°54'19115.9 070 / 71008.0 5.4 0.534.031.433.0
2014-Jul-31 18:00N 19°06' E 039°18'   240 / 131005.010.8 0.534.028.632.0
2014-Jul-29 01:33N 31°13' E 032°21'0 0.0
2014-Jul-29 00:27N 31°13' E 032°21'0 0.0
2014-Jul-28 23:33N 31°13' E 032°21'0 0.0
2014-Jul-28 22:30N 31°13' E 032°21'0 0.0
2014-Jul-28 21:33N 31°13' E 032°21'0 0.0
2014-Jul-28 20:21N 31°13' E 032°21'0 0.0
2014-Jul-28 18:21N 31°13' E 032°21'0 0.0
2014-Jul-28 17:33N 31°13' E 032°21'0 0.0
2014-Jul-28 16:33N 31°13' E 032°21'0 0.0
2014-Jul-28 15:33N 31°13' E 032°21'0 0.0
2014-Jul-28 14:27N 31°13' E 032°21'0 0.0
2014-Jul-28 13:33N 31°13' E 032°21'0 0.0
2014-Jul-28 12:27N 31°13' E 032°21'66 6.5
2014-Jul-28 02:16N 31°56' E 031°23'1217.0
2014-Jul-28 01:33N 32°00' E 031°10'5217.0
2014-Jul-27 22:31N 32°16' E 030°12'3316.8
2014-Jul-27 20:33N 32°27' E 029°35'1616.5
2014-Jul-27 19:33N 32°33' E 029°17'76317.3
2014-Jul-25 23:33N 36°40' E 014°40'1818.1
2014-Jul-25 22:33N 36°45' E 014°18'1817.8
2014-Jul-25 21:33N 36°49' E 013°57'1717.4
2014-Jul-25 20:33N 36°54' E 013°36'1717.1
2014-Jul-25 19:33N 36°58' E 013°15'1717.2
2014-Jul-25 18:33N 37°02' E 012°54'1717.4
2014-Jul-25 17:33N 37°07' E 012°33'1717.3
2014-Jul-25 16:34N 37°11' E 012°12'1717.1
2014-Jul-25 15:33N 37°15' E 011°51'1717.2
2014-Jul-25 14:33N 37°18' E 011°30'1716.4
2014-Jul-25 13:33N 37°23' E 011°10'1716.8
2014-Jul-25 12:33N 37°28' E 010°50'1817.3
2014-Jul-25 11:32N 37°33' E 010°28'2217.8
2014-Jul-25 10:18N 37°35' E 010°01'1418.2
2014-Jul-25 09:33N 37°35' E 009°44'1818.0
2014-Jul-25 08:32N 37°39' E 009°21'1717.5
2014-Jul-25 07:33N 37°42' E 008°59'1817.8
2014-Jul-25 06:33N 37°42' E 008°37'1616.4
2014-Jul-25 05:33N 37°42' E 008°17'2419.7
2014-Jul-25 04:21N 37°42' E 007°46'5517.0
2014-Jul-25 01:09N 37°37' E 006°38'915.3
2014-Jul-25 00:33N 37°35' E 006°26'1716.5
2014-Jul-24 23:32N 37°32' E 006°06'1717.1
2014-Jul-24 22:33N 37°29' E 005°45'1717.3
2014-Jul-24 21:33N 37°26' E 005°23'1717.3
2014-Jul-24 20:33N 37°23' E 005°02'1717.4
2014-Jul-24 19:33N 37°20' E 004°41'1717.5
2014-Jul-24 18:33N 37°17' E 004°19'1717.1
2014-Jul-24 17:33N 37°14' E 003°58'1717.1
2014-Jul-24 16:33N 37°10' E 003°37'2118.3
2014-Jul-24 15:25N 37°07' E 003°11'2219.0
2014-Jul-24 14:16N 37°03' E 002°44'1318.4
2014-Jul-24 13:33N 37°00' E 002°28'1817.8
2014-Jul-24 12:33N 36°57' E 002°06'1817.8
2014-Jul-24 11:33N 36°54' E 001°44'1818.3
2014-Jul-24 10:33N 36°50' E 001°22'2318.4
2014-Jul-24 09:17N 36°46' E 000°53'1418.2
2014-Jul-24 08:30N 36°44' E 000°35'1718.2
2014-Jul-24 07:33N 36°41' E 000°14'3818.1
2014-Jul-24 05:26N 36°35' W 000°33'1719.0
2014-Jul-24 04:33N 36°32' W 000°53'3718.5
2014-Jul-24 02:33N 36°26' W 001°39'18318.3
2014-Jul-23 16:33N 36°07' W 005°24'2 1.8
2014-Jul-23 15:31N 36°08' W 005°26'0 0.0
2014-Jul-23 14:31N 36°08' W 005°26'0 0.0
2014-Jul-23 12:19N 36°08' W 005°26'0 0.0
2014-Jul-23 11:21N 36°08' W 005°26'0 0.0
2014-Jul-23 10:24N 36°08' W 005°26'0 0.0
2014-Jul-23 09:18N 36°08' W 005°26'0 0.0
2014-Jul-23 08:24N 36°08' W 005°26'10 0.9
2014-Jul-22 21:33N 35°58' W 005°27'11216.0
2014-Jul-22 14:33N 36°05' W 007°45'1716.8
2014-Jul-22 13:33N 36°08' W 008°06'2417.1
2014-Jul-22 12:09N 36°13' W 008°35'1 7.5
2014-Jul-22 12:00N 36°12' W 008°36'1320.1 340 / 191016.0 1.020.016.723.0
2014-Jul-22 11:21N 36°15' W 008°51'1316.6
2014-Jul-22 10:33N 36°18' W 009°07'1917.7
2014-Jul-22 09:29N 36°23' W 009°30'1010.8
2014-Jul-22 08:33N 36°25' W 009°42'1111.2
2014-Jul-22 07:33N 36°26' W 009°56'1615.8
2014-Jul-22 06:30N 36°30' W 010°16'  

Dump ship's entire track history